Time;durP1;ratioP1;P1;durP2;ratioP2;P2;SDS_P1;SDS_P2;PMS_P1;PMS_P2;Temp;Humidity;BMP_temperature;BMP_pressure;BME280_temperature;BME280_humidity;BME280_pressure;Samples;Min_cycle;Max_cycle;Signal;HPM_P1;HPM_P2
2022/07/31 00:02:00;;;;;;;3.03;2.17;;;;;;;17.88;66.99;101205.91;4846893;29;20360;-55
2022/07/31 00:04:27;;;;;;;6.57;2.17;;;;;;;18.01;67.50;101206.66;4847593;29;20022;-57
2022/07/31 00:06:53;;;;;;;4.35;2.78;;;;;;;18.17;66.83;101219.38;4847122;29;20037;-55
2022/07/31 00:09:19;;;;;;;7.85;2.92;;;;;;;17.85;66.90;101216.41;4841495;29;20048;-60
2022/07/31 00:11:45;;;;;;;6.25;2.80;;;;;;;17.56;68.02;101202.88;4828213;29;20027;-57
2022/07/31 00:14:12;;;;;;;4.07;2.65;;;;;;;17.45;68.66;101214.59;4828624;29;20030;-58
2022/07/31 00:16:38;;;;;;;6.72;3.17;;;;;;;17.44;68.34;101218.38;4827860;29;20488;-57
2022/07/31 00:19:04;;;;;;;6.47;3.33;;;;;;;17.29;68.96;101215.38;4828459;29;20436;-58
2022/07/31 00:21:33;;;;;;;4.13;3.05;;;;;;;17.32;68.61;101204.91;4828353;29;20073;-52
2022/07/31 00:23:59;;;;;;;4.95;3.33;;;;;;;17.38;68.55;101189.56;4829090;29;20069;-57
2022/07/31 00:26:26;;;;;;;7.03;3.60;;;;;;;17.59;68.32;101202.38;4846254;29;20491;-56
2022/07/31 00:28:52;;;;;;;4.80;3.00;;;;;;;17.61;68.33;101205.69;4830155;29;20075;-60
2022/07/31 00:31:18;;;;;;;5.57;3.20;;;;;;;17.75;67.77;101216.22;4828187;29;20445;-57
2022/07/31 00:33:44;;;;;;;4.38;2.70;;;;;;;17.68;68.09;101214.47;4838816;29;20046;-60
2022/07/31 00:36:11;;;;;;;5.25;3.17;;;;;;;17.88;67.81;101207.81;4837230;29;20436;-61
2022/07/31 00:38:37;;;;;;;4.90;2.60;;;;;;;18.09;67.02;101204.34;4840569;29;20022;-57
2022/07/31 00:41:03;;;;;;;5.22;2.95;;;;;;;18.25;67.34;101204.56;4830057;29;20484;-59
2022/07/31 00:43:29;;;;;;;4.30;2.38;;;;;;;18.31;66.89;101198.97;4829273;29;20058;-58
2022/07/31 00:45:56;;;;;;;4.63;2.50;;;;;;;18.27;66.43;101205.97;4828711;29;20061;-58
2022/07/31 00:48:23;;;;;;;3.78;2.60;;;;;;;18.53;66.84;101209.03;4827985;29;20026;-57
2022/07/31 00:50:50;;;;;;;5.93;2.20;;;;;;;18.54;66.31;101199.84;4828747;29;20113;-57
2022/07/31 00:53:16;;;;;;;5.55;2.05;;;;;;;18.58;65.34;101212.66;4830336;29;20038;-57
2022/07/31 00:55:42;;;;;;;3.35;2.13;;;;;;;18.54;65.62;101206.06;4827983;29;20090;-57
2022/07/31 00:58:08;;;;;;;3.03;2.20;;;;;;;18.47;65.62;101203.56;4828442;29;20113;-57
2022/07/31 01:00:35;;;;;;;2.42;2.08;;;;;;;18.38;65.84;101201.53;4826038;29;20133;-57
2022/07/31 01:03:01;;;;;;;3.78;1.90;;;;;;;18.26;66.00;101206.22;4825439;29;20084;-57
2022/07/31 01:05:27;;;;;;;3.22;1.90;;;;;;;18.07;67.14;101211.09;4822882;29;20113;-56
2022/07/31 01:07:53;;;;;;;2.03;1.80;;;;;;;18.09;66.80;101215.16;4824365;29;20030;-56
2022/07/31 01:10:40;;;;;;;5.00;2.08;;;;;;;17.97;67.23;101210.91;4825326;29;20117;-57
2022/07/31 01:13:14;;;;;;;6.50;2.17;;;;;;;17.93;68.40;101216.00;4825479;29;20030;-55
2022/07/31 01:15:42;;;;;;;3.40;1.88;;;;;;;18.17;67.77;101203.13;4825414;29;20037;-57
2022/07/31 01:18:10;;;;;;;3.72;2.00;;;;;;;18.25;66.56;101208.09;4824991;29;20391;-58
2022/07/31 01:20:38;;;;;;;2.65;1.85;;;;;;;18.25;67.13;101210.00;4838550;29;20038;-58
2022/07/31 01:23:30;;;;;;;2.95;2.10;;;;;;;18.28;66.39;101209.50;4826024;29;20045;-57
2022/07/31 01:26:13;;;;;;;3.58;1.80;;;;;;;18.30;66.23;101210.06;4825042;29;20030;-57
2022/07/31 01:29:08;;;;;;;1.88;1.52;;;;;;;18.21;67.10;101206.94;4826712;29;20026;-56
2022/07/31 01:32:01;;;;;;;2.47;1.65;;;;;;;18.23;67.53;101204.00;4825012;29;20061;-57
2022/07/31 01:34:33;;;;;;;2.85;1.40;;;;;;;18.20;67.74;101211.56;4818916;29;20049;-57
2022/07/31 01:37:12;;;;;;;2.53;1.38;;;;;;;18.17;67.59;101213.94;4824700;29;20044;-57
2022/07/31 01:39:44;;;;;;;1.67;1.25;;;;;;;18.05;68.06;101199.69;4824930;29;20553;-57
2022/07/31 01:42:15;;;;;;;1.73;1.30;;;;;;;18.02;68.60;101200.97;4824586;29;20403;-58
2022/07/31 01:44:50;;;;;;;3.50;1.60;;;;;;;18.06;68.29;101199.44;4824620;29;20052;-57
2022/07/31 01:47:18;;;;;;;;;;;;;;;17.94;68.59;101196.00;4824954;29;20046;-57
2022/07/31 01:49:46;;;;;;;4.03;1.20;;;;;;;18.17;67.75;101203.13;4808096;29;19921;-57
2022/07/31 01:52:14;;;;;;;1.67;1.10;;;;;;;18.29;67.70;101201.13;4824224;29;20105;-57
2022/07/31 01:54:42;;;;;;;2.78;0.98;;;;;;;18.22;67.94;101200.50;4824600;29;20504;-57
2022/07/31 01:57:10;;;;;;;1.80;1.38;;;;;;;18.40;67.24;101200.22;4824496;29;20078;-57
2022/07/31 01:59:37;;;;;;;2.80;1.42;;;;;;;18.49;66.94;101200.63;4824656;29;20091;-57
2022/07/31 02:02:03;;;;;;;1.55;1.20;;;;;;;18.53;66.70;101206.34;4824865;29;20068;-57
2022/07/31 02:04:32;;;;;;;2.03;0.90;;;;;;;18.40;67.45;101199.38;4824443;29;20050;-58
2022/07/31 02:07:01;;;;;;;2.20;1.40;;;;;;;18.33;67.82;101204.16;4823972;29;20484;-57
2022/07/31 02:09:29;;;;;;;2.55;1.25;;;;;;;18.34;67.34;101203.09;4824500;29;20030;-57
2022/07/31 02:11:56;;;;;;;1.65;1.17;;;;;;;18.28;67.72;101195.97;4823762;29;20034;-58
2022/07/31 02:14:23;;;;;;;1.83;1.05;;;;;;;18.17;67.85;101195.00;4824359;29;20026;-57
2022/07/31 02:16:50;;;;;;;3.35;1.25;;;;;;;18.20;68.28;101195.28;4824410;29;20026;-57
2022/07/31 02:19:18;;;;;;;2.03;1.20;;;;;;;18.19;67.87;101188.25;4824184;29;20030;-57
2022/07/31 02:21:44;;;;;;;1.50;1.23;;;;;;;18.08;68.63;101197.28;4826133;29;20033;-57
2022/07/31 02:24:10;;;;;;;4.60;1.42;;;;;;;17.87;69.62;101192.59;4823434;29;20034;-57
2022/07/31 02:26:39;;;;;;;2.17;1.40;;;;;;;17.91;69.41;101181.03;4823631;29;20026;-57
2022/07/31 02:29:09;;;;;;;2.15;1.40;;;;;;;18.17;68.81;101182.25;4823780;29;20031;-57
2022/07/31 02:31:37;;;;;;;5.47;1.70;;;;;;;18.06;69.26;101182.34;4824422;29;20094;-57
2022/07/31 02:34:03;;;;;;;1.75;1.00;;;;;;;18.14;68.80;101176.50;4823590;29;20041;-57
2022/07/31 02:36:33;;;;;;;3.35;1.20;;;;;;;18.15;68.47;101181.66;4840143;29;20073;-57
2022/07/31 02:39:01;;;;;;;1.77;1.00;;;;;;;18.22;68.28;101181.53;4846830;24;20137;-57
2022/07/31 02:41:28;;;;;;;1.33;1.05;;;;;;;18.26;68.18;101177.22;4823711;29;20030;-57
2022/07/31 02:43:55;;;;;;;4.15;1.60;;;;;;;18.15;68.43;101180.84;4823629;29;20045;-58
2022/07/31 02:46:22;;;;;;;1.90;1.33;;;;;;;18.09;68.88;101188.09;4823489;29;20188;-58
2022/07/31 02:48:49;;;;;;;1.77;1.13;;;;;;;18.16;68.99;101186.03;4822607;29;20469;-57
2022/07/31 02:51:15;;;;;;;1.55;1.23;;;;;;;18.19;68.89;101193.66;4823178;29;20033;-57
2022/07/31 02:53:42;;;;;;;2.55;1.30;;;;;;;17.86;70.13;101202.63;4823451;29;20022;-57
2022/07/31 02:56:09;;;;;;;4.05;1.45;;;;;;;17.83;70.54;101202.31;4822319;29;20054;-62
2022/07/31 02:58:40;;;;;;;2.45;1.17;;;;;;;17.83;70.62;101194.19;4822805;29;20038;-57
2022/07/31 03:01:07;;;;;;;2.85;1.20;;;;;;;17.79;70.63;101204.66;4822990;29;20106;-57
2022/07/31 03:03:33;;;;;;;3.47;1.10;;;;;;;17.63;70.89;101194.59;4823024;29;20038;-57
2022/07/31 03:06:00;;;;;;;1.23;0.93;;;;;;;17.77;70.72;101197.88;4823268;29;20046;-57
2022/07/31 03:08:27;;;;;;;2.75;1.35;;;;;;;17.60;71.46;101197.78;4822870;29;20054;-57
2022/07/31 03:10:53;;;;;;;2.83;1.40;;;;;;;17.65;71.27;101196.00;4820161;29;20038;-57
2022/07/31 03:13:23;;;;;;;3.47;1.20;;;;;;;17.57;71.50;101191.00;4822453;29;20032;-57
2022/07/31 03:15:50;;;;;;;2.78;1.27;;;;;;;17.57;71.76;101201.81;4822594;29;20030;-57
2022/07/31 03:18:20;;;;;;;4.07;1.20;;;;;;;17.67;71.05;101195.78;4823489;29;20175;-58
2022/07/31 03:20:50;;;;;;;2.63;1.30;;;;;;;17.52;71.32;101193.59;4823151;29;20022;-57
2022/07/31 03:23:21;;;;;;;3.13;1.50;;;;;;;17.44;72.06;101204.03;4822883;29;20034;-58
2022/07/31 03:25:49;;;;;;;1.88;1.23;;;;;;;17.42;71.57;101198.81;4822271;29;20035;-58
2022/07/31 03:28:18;;;;;;;1.88;1.10;;;;;;;17.43;71.93;101197.75;4826975;29;20018;-57
2022/07/31 03:30:45;;;;;;;2.28;1.30;;;;;;;17.34;72.06;101210.88;4840846;29;20078;-58
2022/07/31 03:33:11;;;;;;;2.08;1.08;;;;;;;17.56;71.03;101221.03;4840692;29;20110;-57
2022/07/31 03:35:38;;;;;;;1.75;1.40;;;;;;;17.54;70.91;101217.72;4840962;29;20042;-58
2022/07/31 03:38:04;;;;;;;1.75;1.13;;;;;;;17.55;71.18;101213.97;4820796;29;20102;-57
2022/07/31 03:40:31;;;;;;;2.72;1.02;;;;;;;17.34;71.82;101216.28;4822506;29;20069;-57
2022/07/31 03:42:59;;;;;;;1.63;1.00;;;;;;;17.49;71.23;101210.34;4822728;29;20119;-58
2022/07/31 03:45:27;;;;;;;1.20;1.10;;;;;;;17.53;70.88;101210.66;4822870;29;20073;-57
2022/07/31 03:47:53;;;;;;;2.30;1.20;;;;;;;17.55;70.76;101220.19;4822245;29;20039;-57
2022/07/31 03:50:21;;;;;;;2.15;1.20;;;;;;;17.52;71.22;101217.16;4822731;29;20033;-57
2022/07/31 03:52:48;;;;;;;1.55;1.35;;;;;;;17.53;71.03;101216.06;4822893;29;20038;-57
2022/07/31 03:55:14;;;;;;;2.92;1.60;;;;;;;17.73;70.27;101227.31;4822560;29;20061;-57
2022/07/31 03:57:42;;;;;;;1.70;1.10;;;;;;;17.74;70.53;101225.41;4822775;29;20113;-57
2022/07/31 04:00:09;;;;;;;1.83;1.10;;;;;;;17.68;70.51;101224.47;4822628;29;20122;-57
2022/07/31 04:02:35;;;;;;;3.50;1.30;;;;;;;17.62;70.42;101236.28;4821399;29;20408;-57
2022/07/31 04:05:02;;;;;;;2.08;1.10;;;;;;;17.77;70.12;101238.47;4806229;29;20376;-57
2022/07/31 04:07:28;;;;;;;2.78;1.15;;;;;;;17.76;69.64;101245.75;4822263;29;20031;-57
2022/07/31 04:09:54;;;;;;;3.95;1.27;;;;;;;17.72;69.72;101257.31;4822699;29;20484;-57
2022/07/31 04:12:20;;;;;;;1.85;1.15;;;;;;;17.52;70.43;101257.75;4822618;29;20026;-57
2022/07/31 04:14:47;;;;;;;1.40;1.00;;;;;;;17.53;70.49;101259.38;4822886;29;20380;-57
2022/07/31 04:17:13;;;;;;;1.98;1.10;;;;;;;17.76;69.65;101261.19;4821858;29;20031;-57
2022/07/31 04:19:39;;;;;;;1.52;1.13;;;;;;;17.71;70.05;101271.88;4822436;29;20027;-57
2022/07/31 04:22:06;;;;;;;1.27;1.10;;;;;;;17.61;70.53;101277.94;4822594;29;20395;-57
2022/07/31 04:24:32;;;;;;;2.10;0.75;;;;;;;17.51;71.14;101286.69;4822380;29;20091;-57
2022/07/31 04:26:59;;;;;;;1.92;1.25;;;;;;;17.57;71.22;101288.44;4822304;29;20461;-57
2022/07/31 04:29:27;;;;;;;1.55;1.20;;;;;;;17.48;71.19;101298.00;4822390;29;20038;-57
2022/07/31 04:31:54;;;;;;;1.48;1.17;;;;;;;17.40;71.52;101295.69;4822197;29;20041;-57
2022/07/31 04:34:21;;;;;;;1.48;1.00;;;;;;;17.41;71.96;101300.84;4822412;29;20033;-57
2022/07/31 04:36:47;;;;;;;2.47;1.00;;;;;;;17.60;71.33;101298.78;4837904;24;20106;-57
2022/07/31 04:39:13;;;;;;;1.00;0.90;;;;;;;17.51;71.81;101305.63;4844111;29;20113;-57
2022/07/31 04:41:39;;;;;;;1.88;1.20;;;;;;;17.36;72.21;101310.75;4843923;29;20506;-58
2022/07/31 04:44:06;;;;;;;1.55;1.33;;;;;;;17.31;72.58;101295.22;4844035;29;20042;-57
2022/07/31 04:46:32;;;;;;;2.20;1.20;;;;;;;17.31;72.75;101300.63;4843255;29;20509;-57
2022/07/31 04:48:58;;;;;;;1.88;1.38;;;;;;;17.12;73.16;101299.16;4844108;29;20030;-57
2022/07/31 04:51:24;;;;;;;2.28;1.52;;;;;;;17.08;73.62;101300.69;4843778;29;20034;-57
2022/07/31 04:53:50;;;;;;;1.92;1.20;;;;;;;17.01;74.24;101306.22;4844034;29;20025;-57
2022/07/31 04:56:34;;;;;;;2.05;1.38;;;;;;;16.89;74.51;101308.94;4840808;29;20041;-57
2022/07/31 04:59:04;;;;;;;2.17;1.52;;;;;;;17.01;74.13;101303.53;4843498;29;20499;-58
2022/07/31 05:01:30;;;;;;;2.78;1.35;;;;;;;16.95;74.17;101309.88;4843582;29;20033;-58
2022/07/31 05:03:57;;;;;;;3.15;1.60;;;;;;;17.01;73.72;101313.53;4843599;29;20079;-58
2022/07/31 05:06:32;;;;;;;2.30;1.20;;;;;;;17.03;74.05;101317.63;4843403;29;20034;-57
2022/07/31 05:08:59;;;;;;;1.65;1.30;;;;;;;17.07;73.43;101312.56;4843829;29;20034;-57
2022/07/31 05:11:25;;;;;;;2.30;1.30;;;;;;;17.17;73.38;101314.69;4843715;29;20399;-58
2022/07/31 05:13:53;;;;;;;1.73;1.50;;;;;;;17.21;73.11;101322.06;4827300;29;20030;-58
2022/07/31 05:16:20;;;;;;;4.10;1.52;;;;;;;16.77;74.97;101315.44;4835889;29;20054;-58
2022/07/31 05:18:47;;;;;;;1.63;1.20;;;;;;;16.87;74.42;101310.22;4825753;29;20035;-58
2022/07/31 05:21:14;;;;;;;2.65;1.60;;;;;;;17.00;74.00;101303.78;4825181;29;20109;-58
2022/07/31 05:23:43;;;;;;;1.77;1.33;;;;;;;16.82;74.74;101308.25;4825204;29;20031;-58
2022/07/31 05:26:10;;;;;;;2.63;1.00;;;;;;;16.60;75.30;101310.69;4824449;29;20034;-58
2022/07/31 05:28:39;;;;;;;2.75;1.45;;;;;;;16.55;75.64;101313.28;4824547;29;20506;-58
2022/07/31 05:31:07;;;;;;;2.55;1.50;;;;;;;16.68;75.39;101311.38;4824685;29;20033;-57
2022/07/31 05:33:33;;;;;;;1.70;1.30;;;;;;;16.40;76.95;101309.38;4808932;29;20030;-58
2022/07/31 05:36:00;;;;;;;1.80;1.58;;;;;;;16.47;76.98;101308.19;4824498;29;20030;-58
2022/07/31 05:38:27;;;;;;;2.30;1.70;;;;;;;16.30;77.29;101309.94;4824551;29;20078;-58
2022/07/31 05:40:53;;;;;;;2.47;1.77;;;;;;;16.27;77.43;101305.03;4824662;29;20034;-57
2022/07/31 05:43:19;;;;;;;2.92;1.90;;;;;;;16.48;76.88;101301.72;4824591;29;20027;-58
2022/07/31 05:45:46;;;;;;;1.55;1.38;;;;;;;16.30;77.65;101309.94;4824282;29;20035;-57
2022/07/31 05:48:13;;;;;;;3.65;2.10;;;;;;;16.13;78.21;101306.28;4824552;29;20030;-57
2022/07/31 05:50:48;;;;;;;2.95;2.05;;;;;;;16.18;78.22;101301.81;4824538;29;20037;-58
2022/07/31 05:53:15;;;;;;;2.83;1.90;;;;;;;16.25;77.89;101301.72;4824568;29;20034;-57
2022/07/31 05:55:42;;;;;;;2.90;1.90;;;;;;;16.21;78.09;101295.13;4824390;29;20113;-58
2022/07/31 05:58:09;;;;;;;2.20;1.65;;;;;;;16.20;78.38;101305.09;4823904;29;20034;-55
2022/07/31 06:00:35;;;;;;;3.22;1.98;;;;;;;16.30;78.06;101301.84;4824521;29;20057;-57
2022/07/31 06:03:02;;;;;;;2.50;1.67;;;;;;;16.31;78.12;101307.00;4835010;29;20439;-57
2022/07/31 06:05:29;;;;;;;2.10;1.75;;;;;;;16.26;78.10;101303.34;4842698;29;20022;-57
2022/07/31 06:07:56;;;;;;;3.20;1.98;;;;;;;16.15;79.06;101296.88;4842043;29;20053;-55
2022/07/31 06:10:23;;;;;;;2.42;1.83;;;;;;;16.24;78.38;101291.97;4857140;29;20034;-55
2022/07/31 06:12:49;;;;;;;2.50;1.40;;;;;;;16.37;78.08;101287.16;4860533;29;20044;-55
2022/07/31 06:15:15;;;;;;;2.05;1.67;;;;;;;16.41;77.59;101297.50;4860800;29;20033;-55
2022/07/31 06:17:42;;;;;;;1.75;1.30;;;;;;;16.53;76.79;101295.63;4860944;29;20105;-58
2022/07/31 06:20:09;;;;;;;1.60;1.40;;;;;;;16.53;76.89;101285.63;4860936;29;20093;-58
2022/07/31 06:22:38;;;;;;;3.13;1.70;;;;;;;16.48;77.19;101282.00;4860625;29;20387;-58
2022/07/31 06:25:05;;;;;;;2.35;1.63;;;;;;;16.46;76.83;101286.81;4860634;29;20033;-56
2022/07/31 06:27:32;;;;;;;1.63;1.30;;;;;;;16.32;77.52;101291.59;4843293;29;20041;-56
2022/07/31 06:29:58;;;;;;;1.73;1.40;;;;;;;16.42;77.17;101282.94;4860381;29;20479;-56
2022/07/31 06:32:24;;;;;;;5.05;1.58;;;;;;;16.41;77.33;101286.69;4860292;29;20029;-56
2022/07/31 06:34:50;;;;;;;2.17;1.50;;;;;;;16.44;77.56;101283.53;4860309;29;20053;-56
2022/07/31 06:37:16;;;;;;;1.90;1.42;;;;;;;16.46;77.30;101282.25;4859815;29;20105;-56
2022/07/31 06:39:43;;;;;;;1.92;1.45;;;;;;;16.27;77.76;101284.22;4860671;29;20033;-56
2022/07/31 06:42:09;;;;;;;1.55;1.42;;;;;;;16.40;77.25;101276.97;4860190;29;20042;-56
2022/07/31 06:44:35;;;;;;;3.25;1.65;;;;;;;16.13;78.19;101282.78;4860584;29;20042;-56
2022/07/31 06:47:01;;;;;;;1.58;1.48;;;;;;;16.33;77.85;101287.88;4859742;29;20036;-56
2022/07/31 06:49:27;;;;;;;2.15;1.75;;;;;;;16.29;77.23;101289.38;4860206;29;20116;-55
2022/07/31 06:51:54;;;;;;;4.32;1.70;;;;;;;16.32;77.30;101286.22;4860254;29;20057;-56
2022/07/31 06:54:20;;;;;;;2.30;1.35;;;;;;;16.30;78.06;101289.16;4860127;29;20112;-56
2022/07/31 06:56:46;;;;;;;2.42;1.40;;;;;;;16.37;77.33;101284.44;4837054;29;20046;-56
2022/07/31 06:59:12;;;;;;;1.92;1.63;;;;;;;16.32;77.68;101284.34;4822768;29;20037;-56
2022/07/31 07:01:39;;;;;;;2.00;1.23;;;;;;;16.30;77.97;101286.44;4823340;29;20135;-56
2022/07/31 07:04:05;;;;;;;2.95;1.70;;;;;;;16.44;77.52;101286.25;4823505;29;20403;-56
2022/07/31 07:06:31;;;;;;;3.20;1.20;;;;;;;16.40;77.31;101293.16;4823185;29;20327;-56
2022/07/31 07:08:57;;;;;;;2.10;1.60;;;;;;;16.53;76.83;101301.03;4823405;29;20050;-56
2022/07/31 07:11:23;;;;;;;1.98;1.27;;;;;;;16.47;76.78;101291.97;4823215;29;20486;-56
2022/07/31 07:13:49;;;;;;;1.50;1.10;;;;;;;16.50;76.91;101294.22;4823423;29;20113;-56
2022/07/31 07:16:16;;;;;;;1.73;1.40;;;;;;;16.48;77.10;101292.81;4822844;29;20064;-56
2022/07/31 07:18:42;;;;;;;2.50;1.40;;;;;;;16.59;76.92;101295.50;4823184;29;20042;-56
2022/07/31 07:21:09;;;;;;;1.50;1.33;;;;;;;16.76;76.44;101298.34;4823364;29;20387;-56
2022/07/31 07:23:35;;;;;;;2.30;1.30;;;;;;;16.69;76.49;101296.81;4823140;29;20034;-56
2022/07/31 07:26:01;;;;;;;1.88;1.35;;;;;;;16.67;76.50;101291.66;4822932;29;20379;-57
2022/07/31 07:28:27;;;;;;;2.10;1.50;;;;;;;16.73;76.05;101296.16;4823040;29;20045;-56
2022/07/31 07:30:53;;;;;;;1.80;1.30;;;;;;;16.63;76.80;101299.41;4823185;29;20037;-56
2022/07/31 07:33:19;;;;;;;5.63;1.92;;;;;;;16.69;76.55;101296.81;4823303;29;20030;-56
2022/07/31 07:35:46;;;;;;;1.80;1.60;;;;;;;16.72;76.19;101297.22;4822871;29;20323;-56
2022/07/31 07:38:13;;;;;;;2.33;1.52;;;;;;;16.60;76.62;101299.88;4822691;29;20062;-56
2022/07/31 07:40:39;;;;;;;3.17;1.70;;;;;;;16.35;77.58;101291.97;4823037;29;20027;-56
2022/07/31 07:43:05;;;;;;;1.98;1.60;;;;;;;16.37;77.97;101297.13;4823047;29;20391;-56
2022/07/31 07:45:31;;;;;;;1.35;1.13;;;;;;;16.20;78.19;101293.47;4822047;29;20061;-56
2022/07/31 07:47:58;;;;;;;2.55;1.52;;;;;;;16.08;79.06;101291.56;4823071;29;20042;-56
2022/07/31 07:50:24;;;;;;;2.70;1.30;;;;;;;16.18;78.61;101292.91;4823691;29;20034;-57
2022/07/31 07:52:50;;;;;;;2.45;1.33;;;;;;;16.23;78.69;101295.72;4824983;29;20026;-56
2022/07/31 07:55:16;;;;;;;1.98;1.25;;;;;;;16.23;78.69;101299.25;4825148;29;20091;-56
2022/07/31 07:57:44;;;;;;;1.60;1.20;;;;;;;16.17;79.16;101304.75;4823393;29;20037;-57
2022/07/31 08:00:11;;;;;;;2.95;1.38;;;;;;;16.03;79.20;101299.53;4823349;29;20066;-56
2022/07/31 08:02:38;;;;;;;1.52;1.13;;;;;;;16.16;78.98;101311.19;4822940;29;20057;-57
2022/07/31 08:05:05;;;;;;;1.52;1.10;;;;;;;16.12;79.03;101304.63;4822819;29;20118;-56
2022/07/31 08:07:38;;;;;;;1.60;1.23;;;;;;;16.05;79.31;101308.25;4822173;29;20042;-56
2022/07/31 08:10:05;;;;;;;1.45;1.17;;;;;;;16.02;79.13;101303.31;4824891;29;20045;-56
2022/07/31 08:12:32;;;;;;;1.33;1.23;;;;;;;16.09;79.07;101295.91;4826228;29;20027;-56
2022/07/31 08:14:58;;;;;;;1.33;1.17;;;;;;;16.04;79.45;101306.59;4825967;29;20034;-56
2022/07/31 08:17:24;;;;;;;1.20;1.10;;;;;;;16.07;79.09;101302.63;4825980;29;20357;-56
2022/07/31 08:19:51;;;;;;;1.65;1.30;;;;;;;16.04;79.46;101306.59;4825875;29;20046;-56
2022/07/31 08:22:18;;;;;;;1.75;0.88;;;;;;;16.24;78.69;101305.47;4826112;29;20061;-56
2022/07/31 08:24:44;;;;;;;1.42;1.00;;;;;;;16.23;78.18;101299.25;4825924;29;20492;-56
2022/07/31 08:27:26;;;;;;;2.08;1.20;;;;;;;16.26;78.23;101292.53;4825404;29;20026;-56
2022/07/31 08:29:56;;;;;;;1.15;0.90;;;;;;;16.26;78.19;101287.13;4826088;29;20038;-56
2022/07/31 08:32:24;;;;;;;1.27;1.02;;;;;;;16.37;77.79;101289.03;4831110;29;20053;-56
2022/07/31 08:34:51;;;;;;;1.17;1.08;;;;;;;16.19;77.96;101291.84;4825461;29;20062;-56
2022/07/31 08:37:21;;;;;;;1.67;1.20;;;;;;;16.11;78.08;101295.72;4824903;29;20572;-56
2022/07/31 08:39:49;;;;;;;0.73;0.73;;;;;;;16.06;78.12;101303.69;4825699;29;20066;-56
2022/07/31 08:42:16;;;;;;;0.98;0.82;;;;;;;16.25;77.43;101305.22;4825670;29;20031;-56
2022/07/31 08:44:43;;;;;;;1.10;0.93;;;;;;;16.25;77.09;101302.53;4825545;29;20038;-56
2022/07/31 08:47:11;;;;;;;1.70;1.15;;;;;;;16.23;77.29;101306.53;4825154;29;20042;-56
2022/07/31 08:49:44;;;;;;;1.63;1.00;;;;;;;16.43;76.73;101301.59;4825297;29;20109;-56
2022/07/31 08:52:16;;;;;;;1.10;0.98;;;;;;;16.38;76.08;101296.09;4825194;29;20030;-56
2022/07/31 08:54:44;;;;;;;0.68;0.63;;;;;;;16.31;76.64;101295.38;4825305;29;20027;-56
2022/07/31 08:57:11;;;;;;;1.20;1.05;;;;;;;16.37;76.23;101306.06;4808888;29;20387;-56
2022/07/31 08:59:40;;;;;;;1.10;0.82;;;;;;;16.43;76.12;101298.09;4825182;29;20039;-56
2022/07/31 09:02:08;;;;;;;1.10;1.00;;;;;;;16.28;76.80;101301.25;4825297;29;20041;-56
2022/07/31 09:04:34;;;;;;;1.35;1.00;;;;;;;16.39;76.43;101305.03;4825034;29;20069;-56
2022/07/31 09:07:00;;;;;;;1.55;0.90;;;;;;;16.34;76.40;101311.94;4824910;29;20388;-56
2022/07/31 09:09:28;;;;;;;0.82;0.75;;;;;;;16.29;76.91;101302.91;4825141;29;20031;-56
2022/07/31 09:11:55;;;;;;;1.20;1.10;;;;;;;16.44;76.50;101308.69;4825221;29;20088;-56
2022/07/31 09:14:29;;;;;;;0.82;0.73;;;;;;;16.42;76.71;101312.66;4825161;29;20430;-56
2022/07/31 09:16:56;;;;;;;1.25;0.80;;;;;;;16.30;76.81;101309.94;4824900;29;20023;-56
2022/07/31 09:19:24;;;;;;;1.77;0.70;;;;;;;16.19;77.01;101308.84;4823821;29;20034;-56
2022/07/31 09:21:51;;;;;;;0.60;0.60;;;;;;;16.25;76.83;101316.03;4823972;29;20119;-56
2022/07/31 09:24:29;;;;;;;1.50;0.90;;;;;;;16.41;76.55;101314.53;4824083;29;20109;-56
2022/07/31 09:27:09;;;;;;;1.10;0.60;;;;;;;16.23;76.55;101309.22;4827655;29;20045;-56
2022/07/31 09:29:37;;;;;;;1.10;0.70;;;;;;;16.27;76.84;101313.13;4841076;29;20447;-56
2022/07/31 09:32:15;;;;;;;1.02;0.65;;;;;;;16.25;77.07;101317.91;4833986;29;20033;-57
2022/07/31 09:34:43;;;;;;;0.70;0.70;;;;;;;16.33;76.59;101309.50;4824412;29;20034;-56
2022/07/31 09:37:13;;;;;;;0.70;0.70;;;;;;;16.30;76.84;101315.34;4824226;29;20050;-56
2022/07/31 09:39:40;;;;;;;1.00;0.90;;;;;;;16.28;77.02;101303.97;4824248;29;20078;-56
2022/07/31 09:42:08;;;;;;;0.98;0.80;;;;;;;16.32;76.56;101302.41;4824722;29;20030;-56
2022/07/31 09:44:42;;;;;;;0.65;0.60;;;;;;;16.32;76.32;101303.25;4824527;29;20030;-56
2022/07/31 09:47:31;;;;;;;0.93;0.70;;;;;;;16.15;77.35;101299.56;4824193;29;20046;-56
2022/07/31 09:50:03;;;;;;;0.93;0.90;;;;;;;16.21;77.31;101295.97;4834032;29;20171;-56
2022/07/31 09:52:31;;;;;;;0.95;0.80;;;;;;;16.31;76.67;101303.47;4808888;29;20066;-56
2022/07/31 09:55:04;;;;;;;3.15;1.00;;;;;;;16.31;76.78;101304.28;4832103;29;20036;-56
2022/07/31 09:57:30;;;;;;;0.80;0.70;;;;;;;16.35;76.59;101301.97;4842727;29;20482;-56
2022/07/31 09:59:57;;;;;;;0.70;0.70;;;;;;;16.37;76.43;101300.66;4842940;29;20030;-56
2022/07/31 10:02:26;;;;;;;1.13;0.80;;;;;;;16.31;76.58;101301.59;4842930;29;20479;-56
2022/07/31 10:04:54;;;;;;;1.52;0.90;;;;;;;16.39;76.64;101302.34;4842609;29;20475;-56
2022/07/31 10:07:25;;;;;;;1.48;0.80;;;;;;;16.40;76.50;101307.50;4842479;29;20034;-56
2022/07/31 10:09:54;;;;;;;1.00;0.90;;;;;;;16.40;76.05;101298.56;4823030;29;20118;-56
2022/07/31 10:12:21;;;;;;;0.70;0.57;;;;;;;16.21;76.63;101300.50;4824398;29;20105;-56
2022/07/31 10:14:50;;;;;;;1.63;0.80;;;;;;;16.24;76.81;101303.59;4824583;29;20034;-56
2022/07/31 10:17:29;;;;;;;0.93;0.80;;;;;;;16.46;76.19;101303.03;4824278;29;20107;-56
2022/07/31 10:20:02;;;;;;;1.00;0.90;;;;;;;16.45;76.24;101291.41;4824107;29;20030;-56
2022/07/31 10:22:38;;;;;;;1.52;0.82;;;;;;;16.23;76.58;101293.03;4824473;29;20471;-56
2022/07/31 10:25:08;;;;;;;0.80;0.80;;;;;;;16.24;76.86;101291.97;4825400;29;20038;-56
2022/07/31 10:27:36;;;;;;;0.90;0.77;;;;;;;16.25;76.99;101290.91;4830918;29;20091;-56
2022/07/31 10:30:03;;;;;;;0.70;0.60;;;;;;;16.30;76.99;101291.84;4842388;29;20030;-56
2022/07/31 10:32:31;;;;;;;0.95;0.70;;;;;;;16.29;76.94;101292.09;4841462;29;20364;-56
2022/07/31 10:34:58;;;;;;;0.68;0.60;;;;;;;16.43;76.31;101285.41;4842352;29;20030;-56
2022/07/31 10:37:32;;;;;;;1.30;0.75;;;;;;;16.54;75.49;101281.88;4842295;29;20049;-56
2022/07/31 10:40:12;;;;;;;0.88;0.80;;;;;;;16.39;76.18;101286.94;4842608;29;20054;-56
2022/07/31 10:43:05;;;;;;;0.75;0.65;;;;;;;16.39;76.16;101286.13;4842849;29;20382;-56
2022/07/31 10:45:31;;;;;;;0.80;0.68;;;;;;;16.49;75.45;101297.16;4842293;29;20472;-56
2022/07/31 10:48:00;;;;;;;1.60;0.90;;;;;;;16.53;75.52;101282.94;4825773;29;20479;-56
2022/07/31 10:50:29;;;;;;;1.02;0.90;;;;;;;16.52;75.58;101291.28;4842073;29;20025;-56
2022/07/31 10:53:10;;;;;;;1.10;1.00;;;;;;;16.41;76.14;101292.94;4842231;29;20312;-56
2022/07/31 10:55:36;;;;;;;0.95;0.65;;;;;;;16.47;75.86;101299.28;4842157;29;20440;-56
2022/07/31 10:58:14;;;;;;;0.85;0.70;;;;;;;16.41;75.81;101295.63;4842269;29;20034;-56
2022/07/31 11:00:41;;;;;;;0.95;0.80;;;;;;;16.38;75.97;101301.50;4848425;24;20145;-56
2022/07/31 11:03:19;;;;;;;1.27;0.90;;;;;;;16.08;76.88;101299.69;4838762;29;20042;-56
2022/07/31 11:05:54;;;;;;;1.55;1.02;;;;;;;16.18;76.85;101296.41;4822807;29;20426;-56
2022/07/31 11:08:20;;;;;;;1.17;1.07;;;;;;;16.25;76.56;101296.31;4823363;29;20121;-56
2022/07/31 11:10:54;;;;;;;1.42;1.02;;;;;;;16.31;76.31;101306.19;4823385;29;20117;-56
2022/07/31 11:13:23;;;;;;;1.20;0.98;;;;;;;16.17;76.83;101307.47;4823197;29;20096;-56
2022/07/31 11:15:51;;;;;;;0.50;0.50;;;;;;;16.30;76.65;101304.53;4822518;29;20597;-56
2022/07/31 11:18:21;;;;;;;0.75;0.75;;;;;;;16.14;76.86;101299.81;4823254;29;20038;-56
2022/07/31 11:20:59;;;;;;;1.05;0.73;;;;;;;16.18;76.43;101301.00;4823160;29;20042;-56
2022/07/31 11:23:29;;;;;;;1.02;0.90;;;;;;;16.13;77.19;101285.47;4823057;29;20101;-56
2022/07/31 11:26:03;;;;;;;1.00;0.77;;;;;;;16.32;76.56;101300.56;4822837;29;20026;-56
2022/07/31 11:28:30;;;;;;;2.35;0.80;;;;;;;16.36;76.41;101298.19;4823083;29;20042;-56
2022/07/31 11:31:02;;;;;;;1.00;0.73;;;;;;;16.34;76.23;101303.84;4823838;29;20040;-56